Time;durP1;ratioP1;P1;durP2;ratioP2;P2;SDS_P1;SDS_P2;PMS_P1;PMS_P2;Temp;Humidity;BMP_temperature;BMP_pressure;BME280_temperature;BME280_humidity;BME280_pressure;Samples;Min_cycle;Max_cycle;Signal;HPM_P1;HPM_P2
2022/04/24 00:01:48;;;;;;;9.20;5.90;;;;;;;;;;1766202;80;21547;-88
2022/04/24 00:04:14;;;;;;;7.35;5.17;;;;;;;;;;1754258;80;21053;-88
2022/04/24 00:06:41;;;;;;;9.50;5.03;;;;;;;;;;1771467;80;20990;-89
2022/04/24 00:09:09;;;;;;;7.78;5.05;;;;;;;;;;1747548;80;21166;-88
2022/04/24 00:11:37;;;;;;;8.08;5.45;;;;;;;;;;1748222;80;21047;-88
2022/04/24 00:14:09;;;;;;;8.55;6.03;;;;;;;;;;1747615;80;21511;-88
2022/04/24 00:16:34;;;;;;;8.83;5.67;;;;;;;;;;1747445;80;21113;-88
2022/04/24 00:19:01;;;;;;;7.08;5.10;;;;;;;;;;1777936;80;21054;-89
2022/04/24 00:21:28;;;;;;;7.10;5.37;;;;;;;;;;1758707;80;21149;-88
2022/04/24 00:23:54;;;;;;;8.05;5.12;;;;;;;;;;1747440;80;21562;-88
2022/04/24 00:26:20;;;;;;;7.92;5.08;;;;;;;;;;1757063;80;20995;-88
2022/04/24 00:28:48;;;;;;;10.53;5.40;;;;;;;;;;1788541;79;21008;-88
2022/04/24 00:31:16;;;;;;;6.65;4.62;;;;;;;;;;1784940;80;21062;-88
2022/04/24 00:33:42;;;;;;;6.87;4.85;;;;;;;;;;1782064;80;21034;-89
2022/04/24 00:36:10;;;;;;;8.25;4.87;;;;;;;;;;1749640;80;21105;-89
2022/04/24 00:38:36;;;;;;;7.00;4.70;;;;;;;;;;1763038;80;21026;-89
2022/04/24 00:41:02;;;;;;;7.55;5.15;;;;;;;;;;1783874;80;21030;-89
2022/04/24 00:43:29;;;;;;;7.12;5.45;;;;;;;;;;1784321;80;21046;-89
2022/04/24 00:46:13;;;;;;;8.27;5.40;;;;;;;;;;1752476;80;21014;-89
2022/04/24 00:48:42;;;;;;;6.67;4.33;;;;;;;;;;1747237;82;21066;-89
2022/04/24 00:51:11;;;;;;;7.87;4.75;;;;;;;;;;1747705;80;21067;-89
2022/04/24 00:53:36;;;;;;;6.08;4.20;;;;;;;;;;1758290;80;21046;-89
2022/04/24 00:56:08;;;;;;;6.08;4.67;;;;;;;;;;1764247;80;21508;-89
2022/04/24 00:58:34;;;;;;;6.85;4.90;;;;;;;;;;1756128;80;21532;-89
2022/04/24 01:03:51;;;;;;;7.83;5.35;;;;;;;;;;1777808;77;72253;-85
2022/04/24 01:06:17;;;;;;;7.08;4.78;;;;;;;;;;1734318;82;21531;-85
2022/04/24 01:08:44;;;;;;;7.35;4.87;;;;;;;;;;1746762;82;21587;-85
2022/04/24 01:11:10;;;;;;;7.25;4.53;;;;;;;;;;1753565;82;20990;-84
2022/04/24 01:13:37;;;;;;;6.35;4.60;;;;;;;;;;1754925;82;21528;-84
2022/04/24 01:16:03;;;;;;;7.08;5.10;;;;;;;;;;1755417;82;21504;-85
2022/04/24 01:18:29;;;;;;;4.80;3.77;;;;;;;;;;1755367;82;21566;-84
2022/04/24 01:20:56;;;;;;;5.72;4.08;;;;;;;;;;1754203;81;21010;-85
2022/04/24 01:23:22;;;;;;;8.70;4.80;;;;;;;;;;1749153;82;21076;-85
2022/04/24 01:25:48;;;;;;;7.47;4.65;;;;;;;;;;1745028;82;21013;-85
2022/04/24 01:28:16;;;;;;;7.28;4.92;;;;;;;;;;1748671;82;21049;-86
2022/04/24 01:30:42;;;;;;;6.75;4.55;;;;;;;;;;1746168;82;20974;-86
2022/04/24 01:33:08;;;;;;;6.87;4.60;;;;;;;;;;1746273;82;21045;-86
2022/04/24 01:35:34;;;;;;;7.12;4.75;;;;;;;;;;1716066;83;21025;-85
2022/04/24 01:38:02;;;;;;;6.72;4.92;;;;;;;;;;1731306;82;21019;-85
2022/04/24 01:40:28;;;;;;;6.85;4.97;;;;;;;;;;1728199;82;21478;-85
2022/04/24 01:42:55;;;;;;;6.65;4.60;;;;;;;;;;1716379;83;21077;-86
2022/04/24 01:45:21;;;;;;;7.87;5.03;;;;;;;;;;1749518;81;21037;-85
2022/04/24 01:47:49;;;;;;;8.60;5.08;;;;;;;;;;1719483;83;21073;-86
2022/04/24 01:50:15;;;;;;;8.23;4.92;;;;;;;;;;1754289;81;21061;-85
2022/04/24 01:52:42;;;;;;;7.17;5.33;;;;;;;;;;1753036;82;21088;-85
2022/04/24 01:55:09;;;;;;;8.35;5.25;;;;;;;;;;1755235;82;21064;-85
2022/04/24 01:57:35;;;;;;;7.65;5.00;;;;;;;;;;1752670;82;21033;-85
2022/04/24 02:00:02;;;;;;;8.60;5.72;;;;;;;;;;1751229;82;21009;-85
2022/04/24 02:02:31;;;;;;;8.78;5.30;;;;;;;;;;1712455;83;21045;-86
2022/04/24 02:04:58;;;;;;;7.80;4.65;;;;;;;;;;1751878;81;21057;-86
2022/04/24 02:07:24;;;;;;;8.50;5.78;;;;;;;;;;1753868;82;21021;-85
2022/04/24 02:09:52;;;;;;;8.23;5.35;;;;;;;;;;1753505;82;20993;-86
2022/04/24 02:12:18;;;;;;;8.10;4.95;;;;;;;;;;1729351;82;22185;-85
2022/04/24 02:14:46;;;;;;;10.40;5.78;;;;;;;;;;1689902;85;21073;-86
2022/04/24 02:17:13;;;;;;;7.95;5.37;;;;;;;;;;1698414;84;21064;-86
2022/04/24 02:19:41;;;;;;;9.15;5.55;;;;;;;;;;1671291;84;21104;-87
2022/04/24 02:22:07;;;;;;;9.58;6.00;;;;;;;;;;1699517;84;21583;-86
2022/04/24 02:24:33;;;;;;;8.48;5.30;;;;;;;;;;1691782;84;21052;-87
2022/04/24 02:27:00;;;;;;;10.43;6.10;;;;;;;;;;1706841;82;21012;-85
2022/04/24 02:30:12;;;;;;;9.18;6.30;;;;;;;;;;1819968;79;22615;-85
2022/04/24 02:32:38;;;;;;;11.85;6.28;;;;;;;;;;1794020;80;20988;-85
2022/04/24 02:35:04;;;;;;;8.23;5.12;;;;;;;;;;1793155;80;21024;-86
2022/04/24 02:37:32;;;;;;;11.97;6.67;;;;;;;;;;1793118;80;21019;-86
2022/04/24 02:39:58;;;;;;;12.73;7.65;;;;;;;;;;1793138;80;20997;-86
2022/04/24 02:42:24;;;;;;;13.20;6.97;;;;;;;;;;1795113;80;21459;-86
2022/04/24 02:44:51;;;;;;;12.35;6.75;;;;;;;;;;1793241;80;21062;-86
2022/04/24 02:47:17;;;;;;;11.15;6.80;;;;;;;;;;1795524;80;21007;-87
2022/04/24 02:49:44;;;;;;;10.43;7.35;;;;;;;;;;1794571;80;21511;-86
2022/04/24 02:52:11;;;;;;;11.28;6.55;;;;;;;;;;1792829;80;21040;-86
2022/04/24 02:54:39;;;;;;;12.68;6.45;;;;;;;;;;1793745;80;21022;-86
2022/04/24 02:57:05;;;;;;;12.03;7.08;;;;;;;;;;1796004;79;21015;-85
2022/04/24 02:59:33;;;;;;;11.55;7.78;;;;;;;;;;1794396;80;21071;-84
2022/04/24 03:01:59;;;;;;;10.45;6.15;;;;;;;;;;1794239;80;21622;-83
2022/04/24 03:04:25;;;;;;;10.40;6.87;;;;;;;;;;1791808;80;21127;-84
2022/04/24 03:06:53;;;;;;;11.80;6.72;;;;;;;;;;1757289;81;21652;-84
2022/04/24 03:09:19;;;;;;;11.53;6.40;;;;;;;;;;1712502;83;21139;-84
2022/04/24 03:11:47;;;;;;;11.68;6.62;;;;;;;;;;1691979;83;21076;-84
2022/04/24 03:14:13;;;;;;;12.20;6.37;;;;;;;;;;1715235;83;21060;-84
2022/04/24 03:16:41;;;;;;;12.07;6.85;;;;;;;;;;1684690;83;21563;-85
2022/04/24 03:19:08;;;;;;;11.12;6.67;;;;;;;;;;1708734;83;21056;-85
2022/04/24 03:21:34;;;;;;;12.00;6.72;;;;;;;;;;1734782;81;21525;-85
2022/04/24 03:24:01;;;;;;;12.58;8.08;;;;;;;;;;1735832;81;21070;-86
2022/04/24 03:26:27;;;;;;;12.75;7.15;;;;;;;;;;1704797;83;21044;-85
2022/04/24 03:28:53;;;;;;;11.57;6.53;;;;;;;;;;1692287;83;21548;-85
2022/04/24 03:31:19;;;;;;;11.97;7.12;;;;;;;;;;1747599;82;21089;-85
2022/04/24 03:33:45;;;;;;;12.70;6.33;;;;;;;;;;1685992;85;21125;-86
2022/04/24 03:36:13;;;;;;;10.82;6.87;;;;;;;;;;1698914;83;21056;-85
2022/04/24 03:38:40;;;;;;;12.47;7.22;;;;;;;;;;1749549;82;21038;-84
2022/04/24 03:41:05;;;;;;;13.35;6.87;;;;;;;;;;1721998;82;21034;-85
2022/04/24 03:43:33;;;;;;;11.53;6.10;;;;;;;;;;1693041;83;21581;-86
2022/04/24 03:45:59;;;;;;;11.95;6.80;;;;;;;;;;1759150;80;21026;-86
2022/04/24 03:48:27;;;;;;;10.43;6.55;;;;;;;;;;1756551;80;21504;-87
2022/04/24 03:50:55;;;;;;;11.38;6.70;;;;;;;;;;1773230;80;21010;-86
2022/04/24 03:53:21;;;;;;;12.98;6.42;;;;;;;;;;1785650;80;21095;-86
2022/04/24 03:55:47;;;;;;;9.98;5.58;;;;;;;;;;1782765;80;20985;-86
2022/04/24 03:58:14;;;;;;;9.35;6.05;;;;;;;;;;1786721;80;21028;-83
2022/04/24 04:00:39;;;;;;;8.15;5.45;;;;;;;;;;1772653;80;21020;-83
2022/04/24 04:03:08;;;;;;;8.25;5.08;;;;;;;;;;1737769;82;21601;-84
2022/04/24 04:05:37;;;;;;;7.65;5.10;;;;;;;;;;1711794;84;21049;-84
2022/04/24 04:08:05;;;;;;;8.60;5.95;;;;;;;;;;1780071;80;21048;-84
2022/04/24 04:10:31;;;;;;;6.40;3.98;;;;;;;;;;1756251;80;21071;-84
2022/04/24 04:12:59;;;;;;;8.10;5.25;;;;;;;;;;1720350;82;21117;-85
2022/04/24 04:15:25;;;;;;;7.15;4.30;;;;;;;;;;1693834;83;21119;-84
2022/04/24 04:17:51;;;;;;;7.55;4.85;;;;;;;;;;1720496;82;21113;-83
2022/04/24 04:20:18;;;;;;;7.25;4.85;;;;;;;;;;1692786;83;21076;-83
2022/04/24 04:22:55;;;;;;;6.53;4.55;;;;;;;;;;1775120;80;21552;-83
2022/04/24 04:25:18;;;;;;;6.58;4.58;;;;;;;;;;1776009;80;21045;-83
2022/04/24 04:27:44;;;;;;;6.45;4.12;;;;;;;;;;1784405;80;20992;-83
2022/04/24 04:30:11;;;;;;;6.30;4.50;;;;;;;;;;1777343;80;21575;-84
2022/04/24 04:32:37;;;;;;;6.30;4.25;;;;;;;;;;1760590;80;21051;-84
2022/04/24 04:35:05;;;;;;;5.92;4.10;;;;;;;;;;1770796;81;21021;-84
2022/04/24 04:37:32;;;;;;;6.70;4.03;;;;;;;;;;1776774;80;21567;-83
2022/04/24 04:40:02;;;;;;;6.58;4.47;;;;;;;;;;1784642;80;21020;-83
2022/04/24 04:42:28;;;;;;;4.92;3.55;;;;;;;;;;1784533;80;21047;-83
2022/04/24 04:44:56;;;;;;;5.50;4.17;;;;;;;;;;1784389;80;21052;-83
2022/04/24 04:47:22;;;;;;;5.58;4.10;;;;;;;;;;1784665;80;21033;-83
2022/04/24 04:49:50;;;;;;;4.58;3.37;;;;;;;;;;1782629;80;21168;-85
2022/04/24 04:52:17;;;;;;;6.30;4.47;;;;;;;;;;1775597;80;21116;-85
2022/04/24 04:54:43;;;;;;;6.20;4.00;;;;;;;;;;1775621;81;21005;-84
2022/04/24 04:57:11;;;;;;;5.22;3.83;;;;;;;;;;1775509;80;21096;-84
2022/04/24 04:59:37;;;;;;;6.60;3.90;;;;;;;;;;1775702;80;21029;-83
2022/04/24 05:02:03;;;;;;;6.62;4.12;;;;;;;;;;1775684;81;21361;-82
2022/04/24 05:04:31;;;;;;;5.97;3.58;;;;;;;;;;1775403;80;21120;-82
2022/04/24 05:06:57;;;;;;;5.85;3.95;;;;;;;;;;1775406;81;21065;-82
2022/04/24 05:09:24;;;;;;;5.90;4.28;;;;;;;;;;1775695;81;21040;-83
2022/04/24 05:11:53;;;;;;;5.25;3.65;;;;;;;;;;1775579;80;21034;-83
2022/04/24 05:14:20;;;;;;;5.17;3.90;;;;;;;;;;1775315;80;21123;-83
2022/04/24 05:16:47;;;;;;;4.87;4.10;;;;;;;;;;1767140;80;20989;-82
2022/04/24 05:19:14;;;;;;;4.85;3.45;;;;;;;;;;1737167;82;21050;-83
2022/04/24 05:21:42;;;;;;;5.78;4.22;;;;;;;;;;1698686;84;21492;-83
2022/04/24 05:24:09;;;;;;;5.37;3.85;;;;;;;;;;1717556;83;21053;-81
2022/04/24 05:26:36;;;;;;;4.58;3.70;;;;;;;;;;1735104;82;21076;-83
2022/04/24 05:29:03;;;;;;;4.58;4.00;;;;;;;;;;1741899;82;21468;-82
2022/04/24 05:31:30;;;;;;;4.50;3.87;;;;;;;;;;1755227;82;21011;-83
2022/04/24 05:33:57;;;;;;;5.28;4.10;;;;;;;;;;1755011;82;21519;-83
2022/04/24 05:36:23;;;;;;;4.72;4.00;;;;;;;;;;1755177;82;21047;-82
2022/04/24 05:38:49;;;;;;;4.92;4.00;;;;;;;;;;1752497;82;21015;-81
2022/04/24 05:41:15;;;;;;;5.85;4.05;;;;;;;;;;1750983;82;21441;-81
2022/04/24 05:43:42;;;;;;;5.83;4.30;;;;;;;;;;1732981;82;21062;-81
2022/04/24 05:46:08;;;;;;;4.58;3.95;;;;;;;;;;1737653;80;21026;-82
2022/04/24 05:48:35;;;;;;;5.30;4.70;;;;;;;;;;1719257;83;21016;-82
2022/04/24 05:51:01;;;;;;;5.25;4.37;;;;;;;;;;1754151;82;21042;-82
2022/04/24 05:53:28;;;;;;;5.55;4.62;;;;;;;;;;1738119;82;21529;-82
2022/04/24 05:55:57;;;;;;;6.45;5.03;;;;;;;;;;1748074;82;21052;-82
2022/04/24 05:58:23;;;;;;;10.35;8.48;;;;;;;;;;1715096;83;21468;-81
2022/04/24 06:00:49;;;;;;;15.35;11.30;;;;;;;;;;1719515;83;21644;-82
2022/04/24 06:03:15;;;;;;;10.93;7.25;;;;;;;;;;1721360;82;21078;-82
2022/04/24 06:05:42;;;;;;;8.68;6.25;;;;;;;;;;1738786;82;21112;-82
2022/04/24 06:08:09;;;;;;;6.42;5.70;;;;;;;;;;1691630;82;21642;-83
2022/04/24 06:10:36;;;;;;;6.20;5.60;;;;;;;;;;1723615;82;21089;-82
2022/04/24 06:13:04;;;;;;;19.25;10.70;;;;;;;;;;1735438;82;21106;-83
2022/04/24 06:15:31;;;;;;;16.17;8.95;;;;;;;;;;1713506;84;21480;-83
2022/04/24 06:17:57;;;;;;;6.25;5.50;;;;;;;;;;1713356;84;21072;-82
2022/04/24 06:20:24;;;;;;;14.90;9.60;;;;;;;;;;1715349;82;21057;-83
2022/04/24 06:22:53;;;;;;;22.35;11.93;;;;;;;;;;1721102;82;21064;-82
2022/04/24 06:25:20;;;;;;;7.08;6.08;;;;;;;;;;1740675;82;21112;-82
2022/04/24 06:27:46;;;;;;;6.70;5.50;;;;;;;;;;1737932;82;20966;-81
2022/04/24 06:30:14;;;;;;;7.58;5.10;;;;;;;;;;1736612;82;21054;-81
2022/04/24 06:32:42;;;;;;;8.78;6.83;;;;;;;;;;1767491;79;21060;-82
2022/04/24 06:35:14;;;;;;;13.40;8.13;;;;;;;;;;1773405;81;21009;-82
2022/04/24 06:37:37;;;;;;;14.10;8.75;;;;;;;;;;1777564;80;21072;-82
2022/04/24 06:40:06;;;;;;;14.07;8.90;;;;;;;;;;1775944;81;21092;-82
2022/04/24 06:42:33;;;;;;;9.03;6.60;;;;;;;;;;1757442;81;21544;-82
2022/04/24 06:44:59;;;;;;;7.83;5.80;;;;;;;;;;1765881;81;21066;-82
2022/04/24 06:47:27;;;;;;;6.17;5.22;;;;;;;;;;1771192;81;21057;-82
2022/04/24 06:49:53;;;;;;;8.88;6.28;;;;;;;;;;1760796;81;21093;-82
2022/04/24 06:52:21;;;;;;;6.35;5.37;;;;;;;;;;1769929;81;21065;-82
2022/04/24 06:54:47;;;;;;;6.72;5.62;;;;;;;;;;1777061;81;20993;-82
2022/04/24 06:57:16;;;;;;;12.15;8.50;;;;;;;;;;1771001;81;21041;-82
2022/04/24 06:59:41;;;;;;;7.70;6.03;;;;;;;;;;1766584;81;21013;-83
2022/04/24 07:02:07;;;;;;;6.65;5.53;;;;;;;;;;1758648;79;21065;-82
2022/04/24 07:04:34;;;;;;;7.10;5.87;;;;;;;;;;1762263;81;22263;-82
2022/04/24 07:07:00;;;;;;;6.50;5.80;;;;;;;;;;1778569;81;21032;-82
2022/04/24 07:09:27;;;;;;;7.00;5.70;;;;;;;;;;1753334;81;22104;-82
2022/04/24 07:11:54;;;;;;;8.48;7.35;;;;;;;;;;1747712;82;21065;-82
2022/04/24 07:14:22;;;;;;;6.85;5.67;;;;;;;;;;1750369;79;21049;-83
2022/04/24 07:16:48;;;;;;;12.33;8.00;;;;;;;;;;1767598;79;21014;-83
2022/04/24 07:19:15;;;;;;;17.98;10.03;;;;;;;;;;1773835;81;20995;-83
2022/04/24 07:21:41;;;;;;;12.30;7.85;;;;;;;;;;1752020;81;21555;-82
2022/04/24 07:24:08;;;;;;;12.88;8.63;;;;;;;;;;1747905;82;21580;-82
2022/04/24 07:26:35;;;;;;;16.75;9.45;;;;;;;;;;1748002;82;21057;-83
2022/04/24 07:29:03;;;;;;;11.83;6.78;;;;;;;;;;1760638;81;21037;-82
2022/04/24 07:31:30;;;;;;;6.80;6.10;;;;;;;;;;1774511;81;21104;-84
2022/04/24 07:33:58;;;;;;;6.30;5.70;;;;;;;;;;1772143;81;21065;-83
2022/04/24 07:36:24;;;;;;;6.53;4.90;;;;;;;;;;1760003;80;20989;-85
2022/04/24 07:38:52;;;;;;;5.62;4.70;;;;;;;;;;1774851;80;21444;-84
2022/04/24 07:41:18;;;;;;;6.83;5.33;;;;;;;;;;1775975;81;21053;-83
2022/04/24 07:43:48;;;;;;;7.33;5.50;;;;;;;;;;1777657;80;21020;-83
2022/04/24 07:46:12;;;;;;;5.62;4.42;;;;;;;;;;1783849;80;20977;-83
2022/04/24 07:48:39;;;;;;;5.92;4.17;;;;;;;;;;1776648;80;21057;-82
2022/04/24 07:51:05;;;;;;;4.92;4.00;;;;;;;;;;1785423;80;20979;-83
2022/04/24 07:53:31;;;;;;;4.65;3.85;;;;;;;;;;1782359;79;21016;-82
2022/04/24 07:55:59;;;;;;;4.30;3.20;;;;;;;;;;1810557;79;21030;-82
2022/04/24 07:58:25;;;;;;;3.35;2.87;;;;;;;;;;1776182;79;20971;-83
2022/04/24 08:00:53;;;;;;;4.75;3.42;;;;;;;;;;1766294;80;21068;-82
2022/04/24 08:03:20;;;;;;;4.75;4.00;;;;;;;;;;1805337;79;21529;-82
2022/04/24 08:05:47;;;;;;;4.70;3.58;;;;;;;;;;1783674;79;21025;-83
2022/04/24 08:08:15;;;;;;;4.70;3.60;;;;;;;;;;1809290;79;20985;-83
2022/04/24 08:10:44;;;;;;;4.58;3.80;;;;;;;;;;1734118;80;21061;-84
2022/04/24 08:13:11;;;;;;;4.47;3.45;;;;;;;;;;1795168;79;21107;-84
2022/04/24 08:15:38;;;;;;;4.47;3.87;;;;;;;;;;1811378;79;21008;-86
2022/04/24 08:18:06;;;;;;;4.00;3.40;;;;;;;;;;1792823;79;21069;-83
2022/04/24 08:20:34;;;;;;;4.95;3.52;;;;;;;;;;1785135;79;21560;-81
2022/04/24 08:23:01;;;;;;;4.22;3.27;;;;;;;;;;1784974;79;21493;-79
2022/04/24 08:25:28;;;;;;;4.30;3.17;;;;;;;;;;1771906;79;21065;-83
2022/04/24 08:27:54;;;;;;;3.98;2.87;;;;;;;;;;1822787;79;21523;-83
2022/04/24 08:30:23;;;;;;;5.08;3.67;;;;;;;;;;1821231;79;21021;-84
2022/04/24 08:32:49;;;;;;;3.95;2.85;;;;;;;;;;1819470;79;21020;-84
2022/04/24 08:35:16;;;;;;;3.80;3.10;;;;;;;;;;1819425;79;21071;-84
2022/04/24 08:37:43;;;;;;;4.97;3.70;;;;;;;;;;1812015;79;21076;-83
2022/04/24 08:40:10;;;;;;;4.97;3.60;;;;;;;;;;1767462;79;21115;-84
2022/04/24 08:42:38;;;;;;;3.95;3.33;;;;;;;;;;1763753;81;21579;-84
2022/04/24 08:45:04;;;;;;;5.00;3.98;;;;;;;;;;1783038;79;21025;-82
2022/04/24 08:47:32;;;;;;;5.40;3.90;;;;;;;;;;1816160;79;20997;-84
2022/04/24 08:49:59;;;;;;;5.30;3.92;;;;;;;;;;1806507;79;21532;-84
2022/04/24 08:52:27;;;;;;;4.47;3.52;;;;;;;;;;1815244;79;21020;-82
2022/04/24 08:54:57;;;;;;;4.28;3.30;;;;;;;;;;1815934;79;21005;-83
2022/04/24 08:57:27;;;;;;;4.62;3.90;;;;;;;;;;1786845;79;20997;-84
2022/04/24 08:59:53;;;;;;;4.17;3.33;;;;;;;;;;1765437;79;21040;-83
2022/04/24 09:02:21;;;;;;;4.80;3.50;;;;;;;;;;1773888;79;21057;-83
2022/04/24 09:04:48;;;;;;;4.53;3.62;;;;;;;;;;1747958;81;21110;-83
2022/04/24 09:07:17;;;;;;;4.62;3.50;;;;;;;;;;1754337;79;20978;-82
2022/04/24 09:09:46;;;;;;;4.20;3.12;;;;;;;;;;1779410;79;21068;-81
2022/04/24 09:12:15;;;;;;;4.75;3.42;;;;;;;;;;1799728;79;21096;-82
2022/04/24 09:14:49;;;;;;;4.83;3.50;;;;;;;;;;1780422;79;21009;-82
2022/04/24 09:17:16;;;;;;;4.45;3.60;;;;;;;;;;1816340;79;21017;-82
2022/04/24 09:19:44;;;;;;;3.95;2.98;;;;;;;;;;1798821;79;21619;-82
2022/04/24 09:22:10;;;;;;;4.62;3.75;;;;;;;;;;1778830;80;21017;-82
2022/04/24 09:24:44;;;;;;;4.67;3.65;;;;;;;;;;1765636;80;21073;-81
2022/04/24 09:27:11;;;;;;;4.28;3.50;;;;;;;;;;1748295;82;21561;-82
2022/04/24 09:29:39;;;;;;;4.83;3.35;;;;;;;;;;1748121;82;21034;-81
2022/04/24 09:32:08;;;;;;;4.15;3.47;;;;;;;;;;1732736;81;21080;-82
2022/04/24 09:34:37;;;;;;;5.78;3.90;;;;;;;;;;1739538;81;21024;-82
2022/04/24 09:37:05;;;;;;;4.80;3.50;;;;;;;;;;1746134;81;21076;-82
2022/04/24 09:39:32;;;;;;;4.97;3.83;;;;;;;;;;1729613;81;21076;-82
2022/04/24 09:42:02;;;;;;;4.75;3.58;;;;;;;;;;1735307;81;21512;-83
2022/04/24 09:44:48;;;;;;;5.65;4.00;;;;;;;;;;1729047;83;21008;-82
2022/04/24 09:47:20;;;;;;;5.05;3.15;;;;;;;;;;1730503;81;20989;-82
2022/04/24 09:49:49;;;;;;;4.42;3.50;;;;;;;;;;1734221;82;21090;-82
2022/04/24 09:52:16;;;;;;;4.62;3.55;;;;;;;;;;1743394;82;21039;-83
2022/04/24 09:54:45;;;;;;;5.15;3.85;;;;;;;;;;1742147;81;21055;-84
2022/04/24 09:57:12;;;;;;;5.00;3.72;;;;;;;;;;1744984;81;21092;-81
2022/04/24 09:59:41;;;;;;;4.83;3.85;;;;;;;;;;1728050;82;21135;-83
2022/04/24 10:02:08;;;;;;;4.70;3.50;;;;;;;;;;1748547;81;21083;-83
2022/04/24 10:04:38;;;;;;;3.72;2.85;;;;;;;;;;1734221;81;21072;-84
2022/04/24 10:07:06;;;;;;;7.55;4.75;;;;;;;;;;1742885;81;21018;-83
2022/04/24 10:09:33;;;;;;;4.83;3.70;;;;;;;;;;1728381;81;21571;-83
2022/04/24 10:12:02;;;;;;;5.87;4.33;;;;;;;;;;1727986;83;21011;-82
2022/04/24 10:14:29;;;;;;;6.05;4.20;;;;;;;;;;1751440;81;21076;-84
2022/04/24 10:17:01;;;;;;;5.08;3.58;;;;;;;;;;1758456;81;21075;-82
2022/04/24 10:19:30;;;;;;;3.85;3.30;;;;;;;;;;1747303;81;21067;-83
2022/04/24 10:21:59;;;;;;;6.12;4.15;;;;;;;;;;1732318;81;21012;-84
2022/04/24 10:24:29;;;;;;;5.58;3.62;;;;;;;;;;1751363;81;21056;-83
2022/04/24 10:26:57;;;;;;;4.65;3.90;;;;;;;;;;1741877;81;21020;-84
2022/04/24 10:29:26;;;;;;;4.97;3.55;;;;;;;;;;1747949;81;21040;-83
2022/04/24 10:31:52;;;;;;;4.92;3.42;;;;;;;;;;1784793;79;21037;-83
2022/04/24 10:34:20;;;;;;;4.75;3.80;;;;;;;;;;1773791;79;21073;-82
2022/04/24 10:36:53;;;;;;;5.40;4.10;;;;;;;;;;1766854;79;21021;-82
2022/04/24 10:39:22;;;;;;;6.20;3.52;;;;;;;;;;1775238;81;21072;-82
2022/04/24 10:41:53;;;;;;;4.37;3.67;;;;;;;;;;1776719;79;21029;-82
2022/04/24 10:44:19;;;;;;;4.20;3.17;;;;;;;;;;1805628;79;20966;-82
2022/04/24 10:46:47;;;;;;;4.03;3.40;;;;;;;;;;1800338;79;21036;-82
2022/04/24 10:49:16;;;;;;;4.47;3.62;;;;;;;;;;1748986;81;21065;-82
2022/04/24 10:51:43;;;;;;;4.70;3.70;;;;;;;;;;1748208;82;21045;-82
2022/04/24 10:54:13;;;;;;;4.42;3.45;;;;;;;;;;1749487;79;21497;-83
2022/04/24 10:56:43;;;;;;;4.70;3.50;;;;;;;;;;1764690;79;21049;-82
2022/04/24 10:59:13;;;;;;;6.50;4.90;;;;;;;;;;1768498;81;21073;-82
2022/04/24 11:01:43;;;;;;;5.35;4.22;;;;;;;;;;1768793;81;21005;-82
2022/04/24 11:04:12;;;;;;;4.25;3.37;;;;;;;;;;1768332;81;21038;-82
2022/04/24 11:06:39;;;;;;;4.20;3.55;;;;;;;;;;1778118;79;21005;-82
2022/04/24 11:09:07;;;;;;;4.25;3.70;;;;;;;;;;1805400;79;21053;-82
2022/04/24 11:11:34;;;;;;;4.62;3.85;;;;;;;;;;1804293;79;21088;-83
2022/04/24 11:14:01;;;;;;;4.20;3.30;;;;;;;;;;1805606;79;21018;-83
2022/04/24 11:16:28;;;;;;;4.00;3.27;;;;;;;;;;1805600;79;21041;-82
2022/04/24 11:18:54;;;;;;;5.30;3.77;;;;;;;;;;1806656;79;21783;-82
2022/04/24 11:21:21;;;;;;;5.55;3.75;;;;;;;;;;1798066;79;21001;-82
2022/04/24 11:23:49;;;;;;;3.87;3.08;;;;;;;;;;1751822;81;21014;-83
2022/04/24 11:26:15;;;;;;;4.55;4.03;;;;;;;;;;1733640;79;21067;-82
2022/04/24 11:28:43;;;;;;;4.22;3.55;;;;;;;;;;1777240;81;21126;-82
2022/04/24 11:31:17;;;;;;;5.12;3.75;;;;;;;;;;1781739;80;21521;-83
2022/04/24 11:33:58;;;;;;;5.90;4.00;;;;;;;;;;1785453;80;21017;-83
2022/04/24 11:36:26;;;;;;;4.85;3.80;;;;;;;;;;1789936;79;21100;-83
2022/04/24 11:38:52;;;;;;;4.28;3.33;;;;;;;;;;1818414;79;20989;-84
2022/04/24 11:41:19;;;;;;;4.40;3.50;;;;;;;;;;1818107;79;21493;-83
2022/04/24 11:43:46;;;;;;;4.42;3.65;;;;;;;;;;1818294;79;21052;-83
2022/04/24 11:51:44;;;;;;;4.92;3.90;;;;;;;;;;1717298;82;21093;-84
2022/04/24 11:54:10;;;;;;;5.10;3.40;;;;;;;;;;1734726;80;21022;-84
2022/04/24 11:56:38;;;;;;;7.45;5.58;;;;;;;;;;1753890;82;21053;-85
2022/04/24 11:59:06;;;;;;;7.42;5.28;;;;;;;;;;1754471;82;21318;-83
2022/04/24 12:01:32;;;;;;;6.12;4.20;;;;;;;;;;1732086;81;21104;-84
2022/04/24 12:04:00;;;;;;;7.05;4.60;;;;;;;;;;1742683;81;21160;-83
2022/04/24 12:06:28;;;;;;;5.80;4.47;;;;;;;;;;1759156;81;21062;-83
2022/04/24 12:08:55;;;;;;;5.45;3.60;;;;;;;;;;1743769;82;21048;-83
2022/04/24 12:11:28;;;;;;;5.17;3.87;;;;;;;;;;1743794;81;21549;-83
2022/04/24 12:14:10;;;;;;;4.33;3.37;;;;;;;;;;1728525;82;21105;-82
2022/04/24 12:16:38;;;;;;;6.35;3.15;;;;;;;;;;1731987;81;21077;-83
2022/04/24 12:19:04;;;;;;;4.85;3.60;;;;;;;;;;1731282;83;21049;-84
2022/04/24 12:21:32;;;;;;;5.22;3.83;;;;;;;;;;1799301;79;21044;-83
2022/04/24 12:23:59;;;;;;;4.58;3.80;;;;;;;;;;1721221;81;21548;-83
2022/04/24 12:26:26;;;;;;;5.42;3.77;;;;;;;;;;1770122;81;21072;-84
2022/04/24 12:28:53;;;;;;;7.55;4.05;;;;;;;;;;1761081;80;21076;-83
2022/04/24 12:31:23;;;;;;;4.37;3.55;;;;;;;;;;1779389;79;21052;-83
2022/04/24 12:33:52;;;;;;;5.03;3.52;;;;;;;;;;1747944;82;21048;-83
2022/04/24 12:36:20;;;;;;;4.50;3.30;;;;;;;;;;1747999;82;21111;-83
2022/04/24 12:39:06;;;;;;;5.55;3.58;;;;;;;;;;1794183;79;20997;-83
2022/04/24 12:41:36;;;;;;;3.83;3.08;;;;;;;;;;1816532;79;21505;-84
2022/04/24 12:44:04;;;;;;;6.08;3.30;;;;;;;;;;1816488;79;21188;-83
2022/04/24 12:46:30;;;;;;;4.58;3.50;;;;;;;;;;1782774;79;21056;-81
2022/04/24 12:48:57;;;;;;;3.75;2.98;;;;;;;;;;1749740;81;21081;-81
2022/04/24 12:51:26;;;;;;;3.83;3.30;;;;;;;;;;1805121;79;20990;-83
2022/04/24 12:53:52;;;;;;;3.67;3.17;;;;;;;;;;1782161;79;21526;-82
2022/04/24 12:56:20;;;;;;;5.20;3.80;;;;;;;;;;1774059;81;21106;-83
2022/04/24 12:58:46;;;;;;;4.30;3.50;;;;;;;;;;1762085;81;21052;-82
2022/04/24 13:01:14;;;;;;;5.95;3.50;;;;;;;;;;1763330;81;20987;-83
2022/04/24 13:03:41;;;;;;;4.28;3.37;;;;;;;;;;1775736;79;21516;-82
2022/04/24 13:06:08;;;;;;;4.05;3.20;;;;;;;;;;1812896;79;21029;-83
2022/04/24 13:08:38;;;;;;;4.05;3.35;;;;;;;;;;1816708;79;21040;-83
2022/04/24 13:11:04;;;;;;;4.75;3.35;;;;;;;;;;1817035;79;21083;-83
2022/04/24 13:13:32;;;;;;;4.22;3.10;;;;;;;;;;1816672;79;21100;-83
2022/04/24 13:18:47;;;;;;;4.10;3.60;;;;;;;;;;1770203;81;21022;-81
2022/04/24 13:21:13;;;;;;;4.42;3.62;;;;;;;;;;1771496;81;21042;-81
2022/04/24 13:23:40;;;;;;;3.98;3.47;;;;;;;;;;1766923;79;21092;-82
2022/04/24 13:26:06;;;;;;;4.62;3.30;;;;;;;;;;1779644;79;21006;-82
2022/04/24 13:28:34;;;;;;;4.62;3.42;;;;;;;;;;1763258;81;21581;-81
2022/04/24 13:31:03;;;;;;;3.87;3.30;;;;;;;;;;1752723;79;20985;-82
2022/04/24 13:33:31;;;;;;;3.35;2.85;;;;;;;;;;1712353;84;21098;-82
2022/04/24 13:36:00;;;;;;;4.35;3.15;;;;;;;;;;1711900;84;21134;-81
2022/04/24 13:38:26;;;;;;;4.65;3.17;;;;;;;;;;1741197;81;21580;-81
2022/04/24 13:40:56;;;;;;;5.53;3.47;;;;;;;;;;1779760;79;21011;-83
2022/04/24 13:43:23;;;;;;;3.87;3.02;;;;;;;;;;1755218;81;20993;-81
2022/04/24 13:45:52;;;;;;;4.45;3.05;;;;;;;;;;1813095;79;21060;-82
2022/04/24 13:48:21;;;;;;;4.60;3.47;;;;;;;;;;1791725;79;20977;-82
2022/04/24 13:50:49;;;;;;;3.45;2.80;;;;;;;;;;1777615;79;21002;-83
2022/04/24 13:53:16;;;;;;;4.75;3.17;;;;;;;;;;1763583;79;21064;-83
2022/04/24 13:55:43;;;;;;;4.62;3.40;;;;;;;;;;1790675;79;21030;-84
2022/04/24 13:58:09;;;;;;;3.70;3.25;;;;;;;;;;1767437;79;20974;-83
2022/04/24 14:00:36;;;;;;;4.95;3.85;;;;;;;;;;1800655;79;21513;-83
2022/04/24 14:03:04;;;;;;;5.10;4.08;;;;;;;;;;1802375;79;21066;-83
2022/04/24 14:05:31;;;;;;;4.35;3.47;;;;;;;;;;1774249;81;21023;-82
2022/04/24 14:07:58;;;;;;;4.45;3.30;;;;;;;;;;1773229;79;21014;-82
2022/04/24 14:10:24;;;;;;;4.12;3.22;;;;;;;;;;1805806;79;21045;-84
2022/04/24 14:12:52;;;;;;;4.45;3.80;;;;;;;;;;1805229;79;21009;-81
2022/04/24 14:15:22;;;;;;;4.33;3.30;;;;;;;;;;1783451;79;21042;-82
2022/04/24 14:17:48;;;;;;;6.65;3.17;;;;;;;;;;1771674;80;21033;-82
2022/04/24 14:20:15;;;;;;;3.58;2.95;;;;;;;;;;1768761;81;21112;-82
2022/04/24 14:22:41;;;;;;;4.42;3.67;;;;;;;;;;1770058;79;21008;-81
2022/04/24 14:25:08;;;;;;;4.65;3.60;;;;;;;;;;1767174;81;21121;-83
2022/04/24 14:27:37;;;;;;;3.62;3.10;;;;;;;;;;1761070;81;21104;-82
2022/04/24 14:30:06;;;;;;;4.20;3.50;;;;;;;;;;1777348;81;21088;-82
2022/04/24 14:32:33;;;;;;;5.87;3.50;;;;;;;;;;1763315;79;21088;-83
2022/04/24 14:34:59;;;;;;;4.17;3.77;;;;;;;;;;1748813;81;21057;-81
2022/04/24 14:37:26;;;;;;;4.85;4.00;;;;;;;;;;1768789;80;21045;-83
2022/04/24 14:39:53;;;;;;;3.95;3.37;;;;;;;;;;1769102;79;21029;-82
2022/04/24 14:42:21;;;;;;;5.47;3.40;;;;;;;;;;1748034;82;21029;-82
2022/04/24 14:55:45;;;;;;;3.95;3.55;;;;;;;;;;1793361;80;21016;-82
2022/04/24 14:58:13;;;;;;;4.17;3.35;;;;;;;;;;1792872;80;21520;-81
2022/04/24 15:00:40;;;;;;;3.98;3.58;;;;;;;;;;1793032;80;21053;-82
2022/04/24 15:03:08;;;;;;;4.60;3.30;;;;;;;;;;1789543;79;21123;-81
2022/04/24 15:05:39;;;;;;;4.10;3.33;;;;;;;;;;1782000;80;21033;-83